Dr.Michael Heilos
Wetterdaten: aktuell Sonntag, 19.09.2021 10:30
Datum Zeit Temp. A. Feuchte A. Luftdruck Regen Wind Richtung Richtung Sonnenschein Solar Windchill Windben
19.09.2021 10:30 14,4 C 59 % 1017,9 hPa 0,0 l/m 5,5 km/h (1 Bft) SO 128 10 min 211 W/m 14,4 C 17,7 km/h (3 Bft)
19.09.2021 10:20 14,2 C 60 % 1017,9 hPa 0,0 l/m 5,9 km/h (2 Bft) O-SO 103 10 min 181 W/m 14,2 C 12,9 km/h (3 Bft)
19.09.2021 10:10 14,1 C 60 % 1017,9 hPa 0,0 l/m 5,8 km/h (2 Bft) O-SO 117 0 min 139 W/m 14,1 C 14,5 km/h (3 Bft)
19.09.2021 10:00 13,9 C 60 % 1017,8 hPa 0,0 l/m 7,1 km/h (2 Bft) O 92 0 min 123 W/m 13,5 C 17,7 km/h (3 Bft)
19.09.2021 09:50 13,9 C 60 % 1017,8 hPa 0,0 l/m 5,1 km/h (1 Bft) O 85 0 min 107 W/m 13,9 C 16,1 km/h (3 Bft)
19.09.2021 09:40 13,8 C 60 % 1017,8 hPa 0,0 l/m 6,3 km/h (2 Bft) O 98 0 min 97 W/m 13,8 C 17,7 km/h (3 Bft)
19.09.2021 09:30 13,8 C 60 % 1017,8 hPa 0,0 l/m 5,0 km/h (1 Bft) O-SO 105 0 min 77 W/m 13,8 C 14,5 km/h (3 Bft)
19.09.2021 09:20 13,7 C 60 % 1017,7 hPa 0,0 l/m 4,3 km/h (1 Bft) O-SO 107 0 min 69 W/m 13,7 C 12,9 km/h (3 Bft)
19.09.2021 09:10 13,7 C 60 % 1017,6 hPa 0,0 l/m 4,5 km/h (1 Bft) O 85 0 min 65 W/m 13,7 C 14,5 km/h (3 Bft)
19.09.2021 09:00 13,6 C 60 % 1017,5 hPa 0,0 l/m 4,6 km/h (1 Bft) SO 132 0 min 56 W/m 13,6 C 14,5 km/h (3 Bft)
19.09.2021 08:50 13,6 C 60 % 1017,5 hPa 0,0 l/m 5,8 km/h (2 Bft) O 92 0 min 51 W/m 13,6 C 14,5 km/h (3 Bft)
19.09.2021 08:40 13,4 C 61 % 1017,4 hPa 0,0 l/m 6,2 km/h (2 Bft) O 87 0 min 46 W/m 13,4 C 14,5 km/h (3 Bft)
19.09.2021 08:30 13,2 C 61 % 1017,5 hPa 0,0 l/m 4,5 km/h (1 Bft) O-SO 113 0 min 40 W/m 13,2 C 12,9 km/h (3 Bft)
19.09.2021 08:20 13,1 C 63 % 1017,3 hPa 0,0 l/m 4,6 km/h (1 Bft) O-SO 115 0 min 35 W/m 13,1 C 14,5 km/h (3 Bft)
19.09.2021 08:10 13,1 C 64 % 1017,4 hPa 0,0 l/m 4,3 km/h (1 Bft) SO 130 0 min 26 W/m 13,1 C 12,9 km/h (3 Bft)
19.09.2021 08:00 13,0 C 66 % 1017,3 hPa 0,0 l/m 2,3 km/h (1 Bft) NO 42 0 min 25 W/m 13,0 C 9,7 km/h (2 Bft)
19.09.2021 07:50 12,8 C 68 % 1017,3 hPa 0,0 l/m 3,4 km/h (1 Bft) O-SO 107 0 min 18 W/m 12,8 C 12,9 km/h (3 Bft)
19.09.2021 07:40 12,7 C 69 % 1017,3 hPa 0,0 l/m 3,4 km/h (1 Bft) O-SO 109 0 min 12 W/m 12,7 C 12,9 km/h (3 Bft)
19.09.2021 07:30 12,6 C 69 % 1017,3 hPa 0,0 l/m 4,4 km/h (1 Bft) SO 128 0 min 7 W/m 12,6 C 11,3 km/h (2 Bft)
19.09.2021 07:20 12,4 C 69 % 1017,3 hPa 0,0 l/m 2,5 km/h (1 Bft) SO 126 0 min 5 W/m 12,4 C 6,4 km/h (2 Bft)
19.09.2021 07:10 12,3 C 70 % 1017,3 hPa 0,0 l/m 0,7 km/h (0 Bft) O-SO 123 0 min 0 W/m 12,3 C 4,8 km/h (1 Bft)
19.09.2021 07:00 12,3 C 70 % 1017,2 hPa 0,0 l/m 0,0 km/h (0 Bft) O 96 0 min 0 W/m 12,3 C 0,0 km/h (0 Bft)
19.09.2021 06:50 12,2 C 70 % 1017,2 hPa 0,0 l/m 1,0 km/h (0 Bft) O 96 0 min 0 W/m 12,2 C 4,8 km/h (1 Bft)
19.09.2021 06:40 12,1 C 70 % 1017,3 hPa 0,0 l/m 0,8 km/h (0 Bft) SO 126 0 min 0 W/m 12,1 C 6,4 km/h (2 Bft)
19.09.2021 06:30 12,1 C 69 % 1017,2 hPa 0,0 l/m 0,0 km/h (0 Bft) O 83 0 min 0 W/m 12,1 C 0,0 km/h (0 Bft)
19.09.2021 06:20 12,0 C 70 % 1017,2 hPa 0,0 l/m 0,2 km/h (0 Bft) O 83 0 min 0 W/m 12,0 C 3,2 km/h (1 Bft)
19.09.2021 06:10 11,9 C 70 % 1017,1 hPa 0,0 l/m 0,0 km/h (0 Bft) O 83 0 min 0 W/m 11,9 C 0,0 km/h (0 Bft)
19.09.2021 06:00 11,8 C 70 % 1017,1 hPa 0,0 l/m 0,3 km/h (0 Bft) O 83 0 min 0 W/m 11,8 C 3,2 km/h (1 Bft)
19.09.2021 05:50 11,7 C 70 % 1017,2 hPa 0,0 l/m 0,1 km/h (0 Bft) O 83 0 min 0 W/m 11,7 C 1,6 km/h (1 Bft)
19.09.2021 05:40 11,7 C 70 % 1017,3 hPa 0,0 l/m 0,4 km/h (0 Bft) O 83 0 min 0 W/m 11,7 C 3,2 km/h (1 Bft)
19.09.2021 05:30 11,6 C 69 % 1017,2 hPa 0,0 l/m 0,8 km/h (0 Bft) O 83 0 min 0 W/m 11,6 C 4,8 km/h (1 Bft)
19.09.2021 05:20 11,3 C 69 % 1017,3 hPa 0,0 l/m 0,3 km/h (0 Bft) SO 143 0 min 0 W/m 11,3 C 3,2 km/h (1 Bft)
19.09.2021 05:10 11,1 C 69 % 1017,3 hPa 0,0 l/m 0,9 km/h (0 Bft) SO 143 0 min 0 W/m 11,1 C 4,8 km/h (1 Bft)
19.09.2021 05:00 10,9 C 68 % 1017,2 hPa 0,0 l/m 0,6 km/h (0 Bft) SO 143 0 min 0 W/m 10,9 C 6,4 km/h (2 Bft)
19.09.2021 04:50 11,0 C 68 % 1017,3 hPa 0,0 l/m 0,2 km/h (0 Bft) SO 143 0 min 0 W/m 11,0 C 3,2 km/h (1 Bft)
19.09.2021 04:40 11,1 C 67 % 1017,4 hPa 0,0 l/m 0,2 km/h (0 Bft) SO 143 0 min 0 W/m 11,1 C 1,6 km/h (1 Bft)
19.09.2021 04:30 11,2 C 68 % 1017,4 hPa 0,0 l/m 0,3 km/h (0 Bft) SO 143 0 min 0 W/m 11,2 C 1,6 km/h (1 Bft)
19.09.2021 04:20 11,3 C 67 % 1017,4 hPa 0,0 l/m 0,5 km/h (0 Bft) SO 143 0 min 0 W/m 11,3 C 3,2 km/h (1 Bft)
19.09.2021 04:10 11,5 C 67 % 1017,5 hPa 0,0 l/m 0,4 km/h (0 Bft) SO 143 0 min 0 W/m 11,5 C 3,2 km/h (1 Bft)
19.09.2021 04:00 11,6 C 67 % 1017,6 hPa 0,0 l/m 0,4 km/h (0 Bft) SO 143 0 min 0 W/m 11,6 C 3,2 km/h (1 Bft)
19.09.2021 03:50 11,8 C 67 % 1017,6 hPa 0,0 l/m 0,5 km/h (0 Bft) SO 143 0 min 0 W/m 11,8 C 4,8 km/h (1 Bft)
19.09.2021 03:40 12,0 C 67 % 1017,6 hPa 0,0 l/m 0,0 km/h (0 Bft) S-SO 166 0 min 0 W/m 12,0 C 0,0 km/h (0 Bft)
19.09.2021 03:30 12,1 C 67 % 1017,7 hPa 0,0 l/m 0,1 km/h (0 Bft) S-SO 166 0 min 0 W/m 12,1 C 1,6 km/h (1 Bft)
19.09.2021 03:20 12,2 C 67 % 1017,7 hPa 0,0 l/m 0,3 km/h (0 Bft) S-SO 166 0 min 0 W/m 12,2 C 1,6 km/h (1 Bft)
19.09.2021 03:10 12,2 C 67 % 1017,7 hPa 0,0 l/m 0,0 km/h (0 Bft) S-SO 166 0 min 0 W/m 12,2 C 1,6 km/h (1 Bft)
19.09.2021 03:00 12,3 C 67 % 1017,8 hPa 0,0 l/m 0,2 km/h (0 Bft) S-SO 166 0 min 0 W/m 12,3 C 4,8 km/h (1 Bft)
19.09.2021 02:50 12,4 C 67 % 1017,8 hPa 0,0 l/m 0,2 km/h (0 Bft) S-SO 166 0 min 0 W/m 12,4 C 4,8 km/h (1 Bft)
19.09.2021 02:40 12,5 C 67 % 1017,8 hPa 0,0 l/m 0,1 km/h (0 Bft) S-SO 166 0 min 0 W/m 12,5 C 4,8 km/h (1 Bft)
19.09.2021 02:30 12,5 C 67 % 1017,9 hPa 0,0 l/m 0,4 km/h (0 Bft) S-SO 166 0 min 0 W/m 12,5 C 4,8 km/h (1 Bft)
19.09.2021 02:20 12,3 C 66 % 1017,8 hPa 0,0 l/m 0,6 km/h (0 Bft) S-SO 166 0 min 0 W/m 12,3 C 4,8 km/h (1 Bft)
19.09.2021 02:10 12,1 C 66 % 1017,8 hPa 0,0 l/m 0,2 km/h (0 Bft) S-SO 166 0 min 0 W/m 12,1 C 4,8 km/h (1 Bft)
19.09.2021 02:00 12,0 C 66 % 1017,8 hPa 0,0 l/m 1,3 km/h (1 Bft) S-SO 166 0 min 0 W/m 12,0 C 6,4 km/h (2 Bft)
19.09.2021 01:50 11,8 C 65 % 1017,8 hPa 0,0 l/m 1,1 km/h (1 Bft) S-SO 166 0 min 0 W/m 11,8 C 4,8 km/h (1 Bft)
19.09.2021 01:40 11,7 C 65 % 1017,9 hPa 0,0 l/m 0,0 km/h (0 Bft) S-SO 166 0 min 0 W/m 11,7 C 1,6 km/h (1 Bft)
19.09.2021 01:30 11,7 C 65 % 1017,8 hPa 0,0 l/m 0,5 km/h (0 Bft) S-SO 166 0 min 0 W/m 11,7 C 4,8 km/h (1 Bft)
19.09.2021 01:20 11,7 C 64 % 1017,9 hPa 0,0 l/m 0,9 km/h (0 Bft) S-SO 166 0 min 0 W/m 11,7 C 6,4 km/h (2 Bft)
19.09.2021 01:10 11,9 C 64 % 1018,1 hPa 0,0 l/m 0,0 km/h (0 Bft) S-SO 166 0 min 0 W/m 11,9 C 1,6 km/h (1 Bft)
19.09.2021 01:00 12,1 C 64 % 1018,2 hPa 0,0 l/m 0,4 km/h (0 Bft) S-SO 166 0 min 0 W/m 12,1 C 4,8 km/h (1 Bft)
19.09.2021 00:50 12,2 C 64 % 1018,3 hPa 0,0 l/m 0,4 km/h (0 Bft) S-SO 167 0 min 0 W/m 12,2 C 4,8 km/h (1 Bft)
19.09.2021 00:40 12,3 C 64 % 1018,3 hPa 0,0 l/m 1,4 km/h (1 Bft) S-SO 167 0 min 0 W/m 12,3 C 6,4 km/h (2 Bft)
19.09.2021 00:30 12,3 C 64 % 1018,3 hPa 0,0 l/m 1,2 km/h (1 Bft) SO 138 0 min 0 W/m 12,3 C 4,8 km/h (1 Bft)
19.09.2021 00:20 12,1 C 64 % 1018,2 hPa 0,0 l/m 0,7 km/h (0 Bft) O-SO 122 0 min 0 W/m 12,1 C 3,2 km/h (1 Bft)
19.09.2021 00:10 12,3 C 64 % 1018,2 hPa 0,0 l/m 0,8 km/h (0 Bft) O-SO 122 0 min 0 W/m 12,3 C 3,2 km/h (1 Bft)
19.09.2021 00:00 12,5 C 64 % 1018,2 hPa 0,0 l/m 1,9 km/h (1 Bft) O-SO 122 0 min 0 W/m 12,5 C 4,8 km/h (1 Bft)
18.09.2021 23:50 12,7 C 64 % 1018,4 hPa 0,0 l/m 1,5 km/h (1 Bft) SO 127 0 min 0 W/m 12,7 C 4,8 km/h (1 Bft)
18.09.2021 23:40 12,9 C 64 % 1018,5 hPa 0,0 l/m 1,5 km/h (1 Bft) SO 127 0 min 0 W/m 12,9 C 4,8 km/h (1 Bft)
18.09.2021 23:30 13,0 C 64 % 1018,4 hPa 0,0 l/m 1,9 km/h (1 Bft) SO 127 0 min 0 W/m 13,0 C 4,8 km/h (1 Bft)
18.09.2021 23:20 13,2 C 64 % 1018,3 hPa 0,0 l/m 2,6 km/h (1 Bft) SO 128 0 min 0 W/m 13,2 C 6,4 km/h (2 Bft)
18.09.2021 23:10 13,4 C 64 % 1018,4 hPa 0,0 l/m 2,6 km/h (1 Bft) O-SO 114 0 min 0 W/m 13,4 C 6,4 km/h (2 Bft)
18.09.2021 23:00 13,7 C 64 % 1018,3 hPa 0,0 l/m 2,4 km/h (1 Bft) O-SO 105 0 min 0 W/m 13,7 C 6,4 km/h (2 Bft)
18.09.2021 22:50 13,9 C 64 % 1018,3 hPa 0,0 l/m 3,2 km/h (1 Bft) O-SO 107 0 min 0 W/m 13,9 C 9,7 km/h (2 Bft)
18.09.2021 22:40 14,0 C 65 % 1018,3 hPa 0,0 l/m 3,4 km/h (1 Bft) O-SO 107 0 min 0 W/m 14,0 C 11,3 km/h (2 Bft)
18.09.2021 22:30 14,1 C 65 % 1018,4 hPa 0,0 l/m 3,1 km/h (1 Bft) O 101 0 min 0 W/m 14,1 C 6,4 km/h (2 Bft)
18.09.2021 22:20 14,2 C 65 % 1018,4 hPa 0,0 l/m 2,6 km/h (1 Bft) O-SO 103 0 min 0 W/m 14,2 C 6,4 km/h (2 Bft)
18.09.2021 22:10 14,3 C 65 % 1018,5 hPa 0,0 l/m 3,0 km/h (1 Bft) O-SO 105 0 min 0 W/m 14,3 C 11,3 km/h (2 Bft)
18.09.2021 22:00 14,6 C 65 % 1018,5 hPa 0,0 l/m 2,7 km/h (1 Bft) O 101 0 min 0 W/m 14,6 C 9,7 km/h (2 Bft)
18.09.2021 21:50 14,8 C 64 % 1018,4 hPa 0,0 l/m 2,7 km/h (1 Bft) O 98 0 min 0 W/m 14,8 C 8,0 km/h (2 Bft)
18.09.2021 21:40 15,1 C 64 % 1018,5 hPa 0,0 l/m 2,7 km/h (1 Bft) O 100 0 min 0 W/m 15,1 C 11,3 km/h (2 Bft)
18.09.2021 21:30 15,3 C 63 % 1018,5 hPa 0,0 l/m 2,4 km/h (1 Bft) O-SO 118 0 min 0 W/m 15,3 C 9,7 km/h (2 Bft)
18.09.2021 21:20 15,6 C 62 % 1018,5 hPa 0,0 l/m 3,5 km/h (1 Bft) O-SO 105 0 min 0 W/m 15,6 C 12,9 km/h (3 Bft)
18.09.2021 21:10 15,8 C 62 % 1018,5 hPa 0,0 l/m 5,2 km/h (1 Bft) O-SO 102 0 min 0 W/m 15,8 C 12,9 km/h (3 Bft)
18.09.2021 21:00 15,9 C 61 % 1018,5 hPa 0,0 l/m 4,9 km/h (1 Bft) O-SO 113 0 min 0 W/m 15,9 C 12,9 km/h (3 Bft)
18.09.2021 20:50 16,1 C 61 % 1018,5 hPa 0,0 l/m 4,6 km/h (1 Bft) SO 128 0 min 0 W/m 16,1 C 11,3 km/h (2 Bft)
18.09.2021 20:40 16,2 C 60 % 1018,4 hPa 0,0 l/m 5,4 km/h (1 Bft) O-SO 113 0 min 0 W/m 16,2 C 12,9 km/h (3 Bft)
18.09.2021 20:30 16,2 C 60 % 1018,3 hPa 0,0 l/m 4,1 km/h (1 Bft) SO 132 0 min 0 W/m 16,2 C 14,5 km/h (3 Bft)
18.09.2021 20:20 16,2 C 60 % 1018,3 hPa 0,0 l/m 4,1 km/h (1 Bft) O-SO 110 0 min 0 W/m 16,2 C 11,3 km/h (2 Bft)
18.09.2021 20:10 16,2 C 61 % 1018,2 hPa 0,0 l/m 2,8 km/h (1 Bft) O 91 0 min 0 W/m 16,2 C 8,0 km/h (2 Bft)
18.09.2021 20:00 16,3 C 61 % 1018,2 hPa 0,0 l/m 1,3 km/h (1 Bft) O-SO 109 0 min 0 W/m 16,3 C 3,2 km/h (1 Bft)
18.09.2021 19:50 16,4 C 60 % 1018,3 hPa 0,0 l/m 2,5 km/h (1 Bft) O-SO 109 0 min 0 W/m 16,4 C 6,4 km/h (2 Bft)
18.09.2021 19:40 16,6 C 60 % 1018,3 hPa 0,0 l/m 0,8 km/h (0 Bft) O-NO 76 0 min 0 W/m 16,6 C 4,8 km/h (1 Bft)
18.09.2021 19:30 16,7 C 59 % 1018,3 hPa 0,0 l/m 0,6 km/h (0 Bft) O-NO 69 0 min 0 W/m 16,7 C 4,8 km/h (1 Bft)
18.09.2021 19:20 16,8 C 59 % 1018,2 hPa 0,0 l/m 0,7 km/h (0 Bft) O-NO 74 0 min 0 W/m 16,8 C 4,8 km/h (1 Bft)
18.09.2021 19:10 16,9 C 59 % 1018,4 hPa 0,0 l/m 1,7 km/h (1 Bft) O-NO 57 0 min 9 W/m 16,9 C 6,4 km/h (2 Bft)
18.09.2021 19:00 16,9 C 58 % 1018,5 hPa 0,0 l/m 2,8 km/h (1 Bft) O 84 0 min 12 W/m 16,9 C 9,7 km/h (2 Bft)
18.09.2021 18:50 17,1 C 58 % 1018,3 hPa 0,0 l/m 3,5 km/h (1 Bft) O-SO 102 0 min 18 W/m 17,1 C 9,7 km/h (2 Bft)
18.09.2021 18:40 17,2 C 58 % 1018,3 hPa 0,0 l/m 5,4 km/h (1 Bft) O-SO 105 0 min 25 W/m 17,2 C 14,5 km/h (3 Bft)
18.09.2021 18:30 17,3 C 57 % 1018,3 hPa 0,0 l/m 6,2 km/h (2 Bft) N-NO 31 0 min 32 W/m 17,3 C 16,1 km/h (3 Bft)
18.09.2021 18:20 17,5 C 57 % 1018,3 hPa 0,0 l/m 3,6 km/h (1 Bft) O 96 0 min 35 W/m 17,5 C 11,3 km/h (2 Bft)
18.09.2021 18:10 17,6 C 56 % 1018,2 hPa 0,0 l/m 6,6 km/h (2 Bft) O 93 0 min 46 W/m 17,5 C 17,7 km/h (3 Bft)
18.09.2021 18:00 17,8 C 57 % 1018,2 hPa 0,0 l/m 3,3 km/h (1 Bft) O-NO 57 0 min 69 W/m 17,8 C 11,3 km/h (2 Bft)
18.09.2021 17:50 17,9 C 56 % 1018,1 hPa 0,0 l/m 4,3 km/h (1 Bft) SO 126 0 min 74 W/m 17,9 C 16,1 km/h (3 Bft)
18.09.2021 17:40 18,1 C 55 % 1018,0 hPa 0,0 l/m 4,1 km/h (1 Bft) O-SO 102 0 min 86 W/m 18,1 C 16,1 km/h (3 Bft)
18.09.2021 17:30 18,2 C 55 % 1018,3 hPa 0,0 l/m 4,5 km/h (1 Bft) O-SO 123 0 min 104 W/m 18,2 C 14,5 km/h (3 Bft)
18.09.2021 17:20 18,4 C 54 % 1018,3 hPa 0,0 l/m 3,0 km/h (1 Bft) O-NO 58 0 min 132 W/m 18,4 C 14,5 km/h (3 Bft)
18.09.2021 17:10 18,6 C 54 % 1018,3 hPa 0,0 l/m 3,1 km/h (1 Bft) O 97 0 min 121 W/m 18,6 C 14,5 km/h (3 Bft)
18.09.2021 17:00 18,6 C 53 % 1018,5 hPa 0,0 l/m 2,9 km/h (1 Bft) O-NO 76 0 min 120 W/m 18,6 C 12,9 km/h (3 Bft)
18.09.2021 16:50 18,7 C 52 % 1018,3 hPa 0,0 l/m 3,3 km/h (1 Bft) S-SO 159 0 min 146 W/m 18,7 C 14,5 km/h (3 Bft)
18.09.2021 16:40 18,6 C 53 % 1018,4 hPa 0,0 l/m 5,3 km/h (1 Bft) NO 56 10 min 163 W/m 18,6 C 16,1 km/h (3 Bft)
18.09.2021 16:30 18,8 C 52 % 1018,3 hPa 0,0 l/m 5,6 km/h (1 Bft) NO 37 10 min 176 W/m 18,8 C 14,5 km/h (3 Bft)
18.09.2021 16:20 19,2 C 52 % 1018,3 hPa 0,0 l/m 4,2 km/h (1 Bft) O-SO 119 10 min 155 W/m 19,2 C 14,5 km/h (3 Bft)
18.09.2021 16:10 19,6 C 50 % 1018,4 hPa 0,0 l/m 4,6 km/h (1 Bft) SO 136 10 min 183 W/m 19,6 C 14,5 km/h (3 Bft)
18.09.2021 16:00 20,5 C 48 % 1018,4 hPa 0,0 l/m 3,0 km/h (1 Bft) NO 43 10 min 200 W/m 20,5 C 14,5 km/h (3 Bft)
18.09.2021 15:50 19,8 C 51 % 1018,4 hPa 0,0 l/m 2,0 km/h (1 Bft) O 80 10 min 508 W/m 19,8 C 6,4 km/h (2 Bft)
18.09.2021 15:40 18,8 C 51 % 1018,4 hPa 0,0 l/m 4,5 km/h (1 Bft) N-NO 32 10 min 169 W/m 18,8 C 9,7 km/h (2 Bft)
18.09.2021 15:30 19,3 C 49 % 1018,4 hPa 0,0 l/m 5,2 km/h (1 Bft) NO 53 0 min 123 W/m 19,3 C 14,5 km/h (3 Bft)
18.09.2021 15:20 20,6 C 47 % 1018,5 hPa 0,0 l/m 2,9 km/h (1 Bft) NO 40 0 min 134 W/m 20,6 C 11,3 km/h (2 Bft)
18.09.2021 15:10 20,2 C 45 % 1018,5 hPa 0,0 l/m 2,8 km/h (1 Bft) O-NO 65 10 min 710 W/m 20,2 C 6,4 km/h (2 Bft)
18.09.2021 15:00 19,9 C 48 % 1018,5 hPa 0,0 l/m 3,2 km/h (1 Bft) O-NO 65 10 min 547 W/m 19,9 C 11,3 km/h (2 Bft)
18.09.2021 14:50 19,0 C 52 % 1018,5 hPa 0,0 l/m 2,4 km/h (1 Bft) NO 55 10 min 663 W/m 19,0 C 8,0 km/h (2 Bft)
18.09.2021 14:40 18,7 C 51 % 1018,6 hPa 0,0 l/m 4,5 km/h (1 Bft) O 84 0 min 149 W/m 18,7 C 12,9 km/h (3 Bft)
18.09.2021 14:30 19,2 C 48 % 1018,6 hPa 0,0 l/m 2,6 km/h (1 Bft) NO 53 10 min 163 W/m 19,2 C 8,0 km/h (2 Bft)
18.09.2021 14:20 19,8 C 50 % 1018,5 hPa 0,0 l/m 4,1 km/h (1 Bft) N 355 10 min 647 W/m 19,8 C 11,3 km/h (2 Bft)
18.09.2021 14:10 19,7 C 49 % 1018,6 hPa 0,0 l/m 2,1 km/h (1 Bft) O-NO 65 10 min 740 W/m 19,7 C 6,4 km/h (2 Bft)
18.09.2021 14:00 19,7 C 50 % 1018,7 hPa 0,0 l/m 3,6 km/h (1 Bft) N-NO 22 10 min 687 W/m 19,7 C 11,3 km/h (2 Bft)
18.09.2021 13:50 19,6 C 49 % 1018,7 hPa 0,0 l/m 1,4 km/h (1 Bft) N 360 10 min 696 W/m 19,6 C 6,4 km/h (2 Bft)
18.09.2021 13:40 18,9 C 51 % 1018,8 hPa 0,0 l/m 1,5 km/h (1 Bft) S-SO 162 10 min 670 W/m 18,9 C 4,8 km/h (1 Bft)
18.09.2021 13:30 19,3 C 48 % 1018,8 hPa 0,0 l/m 2,7 km/h (1 Bft) NO 50 10 min 693 W/m 19,3 C 12,9 km/h (3 Bft)
18.09.2021 13:20 19,4 C 49 % 1018,7 hPa 0,0 l/m 2,2 km/h (1 Bft) O-NO 65 10 min 687 W/m 19,4 C 6,4 km/h (2 Bft)
18.09.2021 13:10 19,2 C 50 % 1018,8 hPa 0,0 l/m 2,6 km/h (1 Bft) N 10 10 min 719 W/m 19,2 C 8,0 km/h (2 Bft)
18.09.2021 13:00 19,2 C 52 % 1018,9 hPa 0,0 l/m 2,6 km/h (1 Bft) SO 132 10 min 715 W/m 19,2 C 11,3 km/h (2 Bft)
18.09.2021 12:50 18,6 C 51 % 1018,9 hPa 0,0 l/m 4,4 km/h (1 Bft) NO 56 10 min 392 W/m 18,6 C 16,1 km/h (3 Bft)
18.09.2021 12:40 18,6 C 53 % 1018,9 hPa 0,0 l/m 2,0 km/h (1 Bft) O 97 10 min 805 W/m 18,6 C 6,4 km/h (2 Bft)
18.09.2021 12:30 18,6 C 53 % 1019,0 hPa 0,0 l/m 1,4 km/h (1 Bft) NW 313 10 min 693 W/m 18,6 C 4,8 km/h (1 Bft)
18.09.2021 12:20 18,0 C 53 % 1019,0 hPa 0,0 l/m 1,2 km/h (1 Bft) NW 315 10 min 638 W/m 18,0 C 8,0 km/h (2 Bft)
18.09.2021 12:10 17,6 C 53 % 1019,1 hPa 0,0 l/m 2,9 km/h (1 Bft) NW 313 10 min 610 W/m 17,6 C 11,3 km/h (2 Bft)
18.09.2021 12:00 17,6 C 51 % 1019,0 hPa 0,0 l/m 2,0 km/h (1 Bft) SW 236 10 min 587 W/m 17,6 C 6,4 km/h (2 Bft)
18.09.2021 11:50 17,7 C 52 % 1018,9 hPa 0,0 l/m 2,5 km/h (1 Bft) W 273 10 min 589 W/m 17,7 C 12,9 km/h (3 Bft)
18.09.2021 11:40 17,4 C 55 % 1018,8 hPa 0,0 l/m 2,1 km/h (1 Bft) W-NW 300 10 min 568 W/m 17,4 C 6,4 km/h (2 Bft)
18.09.2021 11:30 17,1 C 56 % 1018,9 hPa 0,0 l/m 2,5 km/h (1 Bft) N-NO 25 10 min 547 W/m 17,1 C 8,0 km/h (2 Bft)
18.09.2021 11:20 16,9 C 57 % 1018,8 hPa 0,0 l/m 2,5 km/h (1 Bft) W-SW 257 10 min 529 W/m 16,9 C 8,0 km/h (2 Bft)
18.09.2021 11:10 16,6 C 61 % 1018,9 hPa 0,0 l/m 2,1 km/h (1 Bft) W 269 10 min 438 W/m 16,6 C 9,7 km/h (2 Bft)
18.09.2021 11:00 16,1 C 62 % 1018,8 hPa 0,0 l/m 2,5 km/h (1 Bft) N-NO 33 10 min 388 W/m 16,1 C 8,0 km/h (2 Bft)
_ Min-Zeit 05:00 15:10 06:00 - 01:10 - - - - 05:00 03:40
Minimum _ 10,9 C 45 % 1017,1 hPa - 0,0 km/h (0 Bft) - - - - 10,9 C 0,0 km/h (0 Bft)
_ Max-Zeit 15:20 05:40 12:10 11:00 10:00 - - 11:00 12:40 15:20 18:10
Maximum _ 20,7 C 70 % 1019,1 hPa 0,0 l/m 7,1 km/h
O (2 Bft)
- - 10 min 805 W/m 20,6 C 17,7 km/h
O-SO (3 Bft)
Durchschnitt _ 15,1 C 61 % 1018,1 hPa #0,0 l/m 2,5 km/h (1 Bft) O-SO - #20 min. 70 W/m 15,1 C 8,5 km/h (2 Bft)